Alexandria, LA (71301)

10:46 PM CDT on August 27, 2016 (GMT -0500)
| | Change Station

Elev -9999 ft 0.00 °N, 0.00 °E | Updated

Cloudy
Cloudy
73 °F
Feels Like 73 °F
N
0
Wind Variable Wind from NNE
Gusts mph

Today
High -- | Low -- °F
--% Chance of Precip.
Yesterday
High -- | Low -- °F
Precip. -- in
Pressure 29.98 in
Visibility 8.0 miles
Clouds Mostly Cloudy 10000 ft
Dew Point 73 °F
Humidity 99%
Rainfall --
Snow Depth Not available.
6:43 AM 7:38 PM
Waning Crescent, 19% visible
METAR KAEX 280253Z 00000KT 8SM BKN100 23/23 A2998 RMK AO2 SLPNO 60007 T02280228 53001
Pressure 29.98 in
Visibility 8.0 miles
Clouds Mostly Cloudy 10000 ft
Dew Point 73 °F
Humidity 99%
Rainfall --
Snow Depth Not available.
6:43 AM 7:38 PM
Waning Crescent, 19% visible
METAR KAEX 280253Z 00000KT 8SM BKN100 23/23 A2998 RMK AO2 SLPNO 60007 T02280228 53001

10-Day Weather Forecast

Almanac

Astronomy

Aug. 27, 2016 Rise Set
Actual Time
Civil Twilight
Nautical Twilight
Astronomical Twilight
Moon
Length of Visible Light
Length of Day
Tomorrow will be .
, % of the Moon is Illuminated

Today's Extremes

State Highs State Lows

Community

WunderPhotos

Upload Photos

1,935,519 photos uploaded!

WunderBlog® & News

Nearby

Air Quality

  Air Quality AQ Index Pollutant
Not available.

Snow Depth

Station Depth Elevation

Earthquake Activity

City Distance Mag. Time & Date
Minimum magnitude displayed is 2.5.

Coastal Water Temperatures

Place Temperature

Stations

Nearby Weather Stations

Station Location Temp. Windchill Dew Point Humidity Wind Precip. Elev Updated Type
                   

Watches & Warnings

There are currently no watches in effect.